createdAt,value
2022-09-23T00:00:59.370Z,101994.75
2022-09-23T00:03:28.165Z,101997.75
2022-09-23T00:06:22.180Z,101994.84
2022-09-23T00:08:49.646Z,101999.16
2022-09-23T00:11:21.659Z,101994.66
2022-09-23T00:13:50.256Z,101994.84
2022-09-23T00:16:20.894Z,101991.59
2022-09-23T00:18:49.318Z,101985.44
2022-09-23T00:21:15.723Z,101981.94
2022-09-23T00:23:43.156Z,101986.13
2022-09-23T00:26:11.996Z,101988.66
2022-09-23T00:28:38.488Z,101989.94
2022-09-23T00:31:10.132Z,101981.19
2022-09-23T00:33:36.987Z,101978.16
2022-09-23T00:36:09.211Z,101967.13
2022-09-23T00:38:35.625Z,101975.59
2022-09-23T00:41:02.784Z,101977.47
2022-09-23T00:43:47.386Z,101964.69
2022-09-23T00:46:35.254Z,101967.81
2022-09-23T00:49:06.805Z,101967.66
2022-09-23T00:51:38.546Z,101962.31
2022-09-23T00:54:06.448Z,101962.31
2022-09-23T00:56:34.472Z,101960.69
2022-09-23T00:59:01.744Z,101948.97
2022-09-23T01:01:28.250Z,101957.81
2022-09-23T01:03:56.921Z,101952.66
2022-09-23T01:06:23.424Z,101952.91
2022-09-23T01:08:50.676Z,101944.06
2022-09-23T01:11:45.441Z,101951.47
2022-09-23T01:14:32.091Z,101951.56
2022-09-23T01:17:28.280Z,101955.13
2022-09-23T01:20:19.275Z,101949.88
2022-09-23T01:23:01.440Z,101956.50
2022-09-23T01:25:47.114Z,101950.41
2022-09-23T01:28:57.113Z,101954.00
2022-09-23T01:31:37.978Z,101948.97
2022-09-23T01:34:19.851Z,101944.88
2022-09-23T01:36:56.866Z,101941.03
2022-09-23T01:39:36.731Z,101944.88
2022-09-23T01:42:29.487Z,101935.59
2022-09-23T01:45:12.924Z,101931.09
2022-09-23T01:47:49.692Z,101932.13
2022-09-23T01:50:40.692Z,101933.03
2022-09-23T01:53:14.586Z,101935.69
2022-09-23T01:55:47.442Z,101931.78
2022-09-23T01:58:26.959Z,101932.56
2022-09-23T02:00:59.311Z,101930.75
2022-09-23T02:03:33.883Z,101927.81
2022-09-23T02:06:11.422Z,101930.16
2022-09-23T02:09:13.674Z,101929.63
2022-09-23T02:11:41.955Z,101930.91
2022-09-23T02:14:19.105Z,101924.13
2022-09-23T02:16:49.977Z,101916.72
2022-09-23T02:19:27.059Z,101918.72
2022-09-23T02:22:05.591Z,101914.81
2022-09-23T02:24:37.412Z,101908.41
2022-09-23T02:27:30.207Z,101903.88
2022-09-23T02:30:18.981Z,101896.69
2022-09-23T02:33:01.081Z,101893.19
2022-09-23T02:35:37.024Z,101886.03
2022-09-23T02:38:12.422Z,101891.72
2022-09-23T02:40:54.276Z,101887.06
2022-09-23T02:43:32.099Z,101874.59
2022-09-23T02:45:58.539Z,101887.66
2022-09-23T02:48:49.104Z,101884.25
2022-09-23T02:51:15.843Z,101877.50
2022-09-23T02:53:43.201Z,101874.84
2022-09-23T02:56:19.493Z,101872.19
2022-09-23T02:58:48.327Z,101868.72
2022-09-23T03:01:35.952Z,101874.84
2022-09-23T03:04:15.890Z,101874.03
2022-09-23T03:07:01.609Z,101877.16
2022-09-23T03:09:34.902Z,101866.31
2022-09-23T03:12:49.217Z,101862.69
2022-09-23T03:15:30.226Z,101861.50
2022-09-23T03:18:31.563Z,101859.06
2022-09-23T03:21:07.154Z,101857.88
2022-09-23T03:23:36.979Z,101854.66
2022-09-23T03:26:12.560Z,101851.97
2022-09-23T03:28:43.588Z,101860.84
2022-09-23T03:31:12.652Z,101861.88
2022-09-23T03:33:43.802Z,101855.75
2022-09-23T03:36:31.589Z,101851.66
2022-09-23T03:39:04.251Z,101852.13
2022-09-23T03:41:37.846Z,101855.16
2022-09-23T03:44:04.779Z,101848.78
2022-09-23T03:46:33.374Z,101848.41
2022-09-23T03:49:08.114Z,101844.13
2022-09-23T03:51:34.441Z,101841.44
2022-09-23T03:54:00.796Z,101840.19
2022-09-23T03:56:27.841Z,101840.72
2022-09-23T03:58:54.156Z,101832.03
2022-09-23T04:01:20.928Z,101835.41
2022-09-23T04:03:47.276Z,101826.97
2022-09-23T04:06:13.600Z,101831.03
2022-09-23T04:08:39.954Z,101829.56
2022-09-23T04:11:06.723Z,101824.56
2022-09-23T04:13:34.268Z,101825.19
2022-09-23T04:16:00.708Z,101824.13
2022-09-23T04:18:27.114Z,101824.72
2022-09-23T04:20:58.684Z,101828.19
2022-09-23T04:23:26.554Z,101825.31
2022-09-23T04:25:53.728Z,101828.59
2022-09-23T04:28:21.246Z,101830.66
2022-09-23T04:30:48.762Z,101826.13
2022-09-23T04:33:15.900Z,101824.88
2022-09-23T04:35:43.413Z,101813.13
2022-09-23T04:38:12.494Z,101817.81
2022-09-23T04:40:39.167Z,101822.69
2022-09-23T04:43:05.821Z,101813.63
2022-09-23T04:45:32.163Z,101812.16
2022-09-23T04:47:59.221Z,101817.03
2022-09-23T04:50:26.372Z,101821.47
2022-09-23T04:52:53.915Z,101822.66
2022-09-23T04:55:20.275Z,101820.31
2022-09-23T04:57:46.974Z,101819.44
2022-09-23T05:00:15.121Z,101820.81
2022-09-23T05:02:45.880Z,101823.03
2022-09-23T05:05:13.242Z,101809.44
2022-09-23T05:07:40.335Z,101819.31
2022-09-23T05:10:07.626Z,101811.66
2022-09-23T05:12:33.993Z,101808.53
2022-09-23T05:15:00.463Z,101800.88
2022-09-23T05:17:26.880Z,101807.59
2022-09-23T05:19:53.240Z,101805.88
2022-09-23T05:22:19.588Z,101805.66
2022-09-23T05:24:46.057Z,101802.75
2022-09-23T05:27:12.684Z,101816.44
2022-09-23T05:29:39.128Z,101810.44
2022-09-23T05:32:05.519Z,101804.88
2022-09-23T05:34:32.257Z,101809.19
2022-09-23T05:36:58.580Z,101815.56
2022-09-23T05:39:24.961Z,101820.09
2022-09-23T05:41:52.845Z,101813.09
2022-09-23T05:44:19.212Z,101819.03
2022-09-23T05:46:45.595Z,101816.75
2022-09-23T05:49:12.096Z,101823.47
2022-09-23T05:51:38.569Z,101819.31
2022-09-23T05:54:05.721Z,101819.88
2022-09-23T05:56:33.703Z,101818.38
2022-09-23T05:59:01.736Z,101809.88
2022-09-23T06:01:32.148Z,101818.25
2022-09-23T06:03:59.553Z,101819.88
2022-09-23T06:06:31.842Z,101819.41
2022-09-23T06:08:59.378Z,101817.44
2022-09-23T06:11:26.440Z,101822.56
2022-09-23T06:14:00.836Z,101823.69
2022-09-23T06:16:28.496Z,101822.19
2022-09-23T06:18:54.972Z,101816.97
2022-09-23T06:21:21.291Z,101818.69
2022-09-23T06:23:47.664Z,101815.78
2022-09-23T06:26:15.655Z,101808.31
2022-09-23T06:28:44.081Z,101805.66
2022-09-23T06:31:15.668Z,101810.53
2022-09-23T06:33:44.777Z,101811.69
2022-09-23T06:36:13.402Z,101804.25
2022-09-23T06:38:48.419Z,101807.03
2022-09-23T06:41:16.088Z,101805.25
2022-09-23T06:43:42.455Z,101808.63
2022-09-23T06:46:08.903Z,101809.53
2022-09-23T06:48:35.614Z,101806.72
2022-09-23T06:51:04.849Z,101811.69
2022-09-23T06:53:34.710Z,101802.81
2022-09-23T06:56:04.024Z,101809.63
2022-09-23T06:58:31.832Z,101812.28
2022-09-23T07:01:07.271Z,101803.84
2022-09-23T07:03:34.347Z,101806.47
2022-09-23T07:06:01.831Z,101809.56
2022-09-23T07:08:29.600Z,101806.47
2022-09-23T07:10:58.013Z,101808.50
2022-09-23T07:13:24.980Z,101809.75
2022-09-23T07:15:56.051Z,101803.56
2022-09-23T07:18:25.613Z,101811.09
2022-09-23T07:20:53.089Z,101809.50
2022-09-23T07:23:19.883Z,101809.03
2022-09-23T07:25:50.163Z,101814.22
2022-09-23T07:28:16.709Z,101802.31
2022-09-23T07:30:56.407Z,101802.88
2022-09-23T07:33:32.139Z,101802.53
2022-09-23T07:35:59.113Z,101805.63
2022-09-23T07:38:31.299Z,101802.34
2022-09-23T07:41:06.917Z,101808.31
2022-09-23T07:43:33.379Z,101809.44
2022-09-23T07:46:03.017Z,101801.47
2022-09-23T07:48:34.136Z,101812.84
2022-09-23T07:51:05.585Z,101811.41
2022-09-23T07:53:32.360Z,101811.50
2022-09-23T07:55:59.352Z,101810.78
2022-09-23T07:58:26.142Z,101808.72
2022-09-23T08:00:53.569Z,101811.53
2022-09-23T08:03:20.271Z,101810.25
2022-09-23T08:05:46.681Z,101813.56
2022-09-23T08:08:14.041Z,101810.13
2022-09-23T08:10:40.442Z,101801.56
2022-09-23T08:13:06.894Z,101812.97
2022-09-23T08:15:33.594Z,101803.56
2022-09-23T08:18:00.788Z,101815.16
2022-09-23T08:20:47.764Z,101810.06
2022-09-23T08:23:16.087Z,101806.09
2022-09-23T08:25:46.301Z,101811.00
2022-09-23T08:28:18.601Z,101804.56
2022-09-23T08:30:48.817Z,101809.44
2022-09-23T08:33:19.636Z,101807.81
2022-09-23T08:35:49.188Z,101807.56
2022-09-23T08:38:15.523Z,101805.66
2022-09-23T08:40:48.417Z,101803.22
2022-09-23T08:43:27.316Z,101803.97
2022-09-23T08:45:57.293Z,101802.88
2022-09-23T08:48:36.884Z,101806.28
2022-09-23T08:51:12.564Z,101810.59
2022-09-23T08:53:40.302Z,101807.28
2022-09-23T08:56:14.766Z,101809.94
2022-09-23T08:59:03.488Z,101801.88
2022-09-23T09:01:42.274Z,101812.38
2022-09-23T09:04:36.163Z,101807.25
2022-09-23T09:07:35.699Z,101803.75
2022-09-23T09:10:12.771Z,101804.06
2022-09-23T09:12:46.228Z,101805.91
2022-09-23T09:15:25.150Z,101795.94
2022-09-23T09:17:59.165Z,101799.13
2022-09-23T09:20:32.244Z,101794.13
2022-09-23T09:23:02.583Z,101797.06
2022-09-23T09:25:49.421Z,101796.28
2022-09-23T09:28:30.772Z,101799.75
2022-09-23T09:31:00.696Z,101796.19
2022-09-23T09:33:36.833Z,101792.72
2022-09-23T09:36:24.839Z,101794.34
2022-09-23T09:38:53.236Z,101794.03
2022-09-23T09:41:21.425Z,101792.03
2022-09-23T09:43:57.603Z,101787.44
2022-09-23T09:46:39.271Z,101782.63
2022-09-23T09:49:41.054Z,101789.00
2022-09-23T09:52:32.283Z,101788.91
2022-09-23T09:55:26.773Z,101791.97
2022-09-23T09:58:05.252Z,101784.31
2022-09-23T10:00:38.160Z,101780.56
2022-09-23T10:03:33.016Z,101780.53
2022-09-23T10:06:00.065Z,101777.94
2022-09-23T10:08:34.330Z,101775.16
2022-09-23T10:11:15.029Z,101776.28
2022-09-23T10:13:42.493Z,101773.84
2022-09-23T10:16:09.409Z,101768.88
2022-09-23T10:18:50.184Z,101766.97
2022-09-23T10:21:26.934Z,101761.19
2022-09-23T10:23:58.235Z,101759.19
2022-09-23T10:26:46.142Z,101753.09
2022-09-23T10:29:32.257Z,101749.28
2022-09-23T10:32:27.354Z,101752.44
2022-09-23T10:35:08.948Z,101749.50
2022-09-23T10:37:48.113Z,101739.63
2022-09-23T10:40:36.262Z,101748.16
2022-09-23T10:43:30.166Z,101744.47
2022-09-23T10:46:23.558Z,101753.53
2022-09-23T10:49:21.964Z,101743.28
2022-09-23T10:52:00.115Z,101747.31
2022-09-23T10:55:04.261Z,101752.13
2022-09-23T10:57:52.152Z,101756.47
2022-09-23T11:00:41.655Z,101753.72
2022-09-23T11:03:32.122Z,101750.78
2022-09-23T11:06:11.267Z,101750.59
2022-09-23T11:09:13.109Z,101753.88
2022-09-23T11:12:03.640Z,101742.75
2022-09-23T11:14:52.963Z,101742.38
2022-09-23T11:17:31.608Z,101744.88
2022-09-23T11:20:22.996Z,101744.75
2022-09-23T11:23:07.627Z,101753.09
2022-09-23T11:25:56.345Z,101737.44
2022-09-23T11:28:51.985Z,101740.47
2022-09-23T11:31:37.264Z,101751.81
2022-09-23T11:34:22.204Z,101742.78
2022-09-23T11:37:07.053Z,101746.84
2022-09-23T11:39:50.260Z,101736.84
2022-09-23T11:42:25.968Z,101734.22
2022-09-23T11:45:00.075Z,101737.88
2022-09-23T11:47:31.221Z,101733.91
2022-09-23T11:50:03.339Z,101733.31
2022-09-23T11:52:47.001Z,101723.38
2022-09-23T11:55:21.494Z,101722.28
2022-09-23T11:57:56.866Z,101715.63
2022-09-23T12:00:26.615Z,101718.44
2022-09-23T12:03:04.544Z,101719.28
2022-09-23T12:05:39.002Z,101719.84
2022-09-23T12:08:16.280Z,101713.03
2022-09-23T12:10:52.848Z,101712.38
2022-09-23T12:13:31.271Z,101704.66
2022-09-23T12:16:09.934Z,101702.03
2022-09-23T12:18:38.894Z,101706.25
2022-09-23T12:21:46.273Z,101710.19
2022-09-23T12:24:27.017Z,101701.38
2022-09-23T12:26:58.881Z,101700.94
2022-09-23T12:32:01.244Z,101694.38
2022-09-23T12:34:47.849Z,101688.84
2022-09-23T12:37:24.099Z,101683.88
2022-09-23T12:39:50.663Z,101681.59
2022-09-23T12:42:20.517Z,101683.59
2022-09-23T12:44:48.780Z,101682.78
2022-09-23T12:47:15.034Z,101688.41
2022-09-23T12:49:43.617Z,101677.97
2022-09-23T12:52:17.184Z,101683.41
2022-09-23T12:54:48.300Z,101679.56
2022-09-23T12:57:33.196Z,101679.50
2022-09-23T13:00:22.443Z,101673.53
2022-09-23T13:03:11.369Z,101666.66
2022-09-23T13:06:09.794Z,101671.41
2022-09-23T13:08:39.077Z,101669.38
2022-09-23T13:11:13.353Z,101675.66
2022-09-23T13:13:45.816Z,101680.91
2022-09-23T13:16:33.055Z,101669.88
2022-09-23T13:19:01.537Z,101668.09
2022-09-23T13:21:43.164Z,101668.09
2022-09-23T13:24:12.436Z,101667.91
2022-09-23T13:26:44.717Z,101660.88
2022-09-23T13:29:19.186Z,101659.44
2022-09-23T13:31:47.377Z,101661.22
2022-09-23T13:34:16.323Z,101657.03
2022-09-23T13:36:44.913Z,101658.75
2022-09-23T13:39:25.340Z,101650.91
2022-09-23T13:41:55.627Z,101656.09
2022-09-23T13:44:22.304Z,101653.38
2022-09-23T13:46:52.036Z,101649.03
2022-09-23T13:49:24.497Z,101649.91
2022-09-23T13:51:54.010Z,101650.28
2022-09-23T13:54:46.238Z,101642.28
2022-09-23T13:57:30.693Z,101636.91
2022-09-23T14:00:15.200Z,101639.81
2022-09-23T14:02:46.793Z,101646.41
2022-09-23T14:05:21.660Z,101643.88
2022-09-23T14:07:49.716Z,101641.34
2022-09-23T14:10:23.232Z,101643.75
2022-09-23T14:12:51.199Z,101636.66
2022-09-23T14:15:19.448Z,101629.81
2022-09-23T14:17:52.285Z,101627.59
2022-09-23T14:20:21.492Z,101630.72
2022-09-23T14:22:47.981Z,101621.72
2022-09-23T14:25:16.670Z,101619.28
2022-09-23T14:27:44.827Z,101617.41
2022-09-23T14:30:18.481Z,101614.69
2022-09-23T14:32:47.776Z,101616.41
2022-09-23T14:35:21.989Z,101608.34
2022-09-23T14:38:11.701Z,101608.25
2022-09-23T14:40:51.569Z,101609.25
2022-09-23T14:43:24.857Z,101605.28
2022-09-23T14:45:55.232Z,101601.88
2022-09-23T14:48:28.330Z,101605.84
2022-09-23T14:50:57.606Z,101600.09
2022-09-23T14:53:32.867Z,101609.09
2022-09-23T14:56:08.334Z,101607.91
2022-09-23T14:58:58.909Z,101594.88
2022-09-23T15:01:31.807Z,101597.09
2022-09-23T15:04:17.998Z,101599.38
2022-09-23T15:07:02.258Z,101597.66
2022-09-23T15:09:33.024Z,101594.56
2022-09-23T15:12:02.218Z,101592.66
2022-09-23T15:14:38.409Z,101599.53
2022-09-23T15:17:17.229Z,101595.19
2022-09-23T15:19:44.068Z,101592.59
2022-09-23T15:22:11.038Z,101586.34
2022-09-23T15:24:43.264Z,101586.97
2022-09-23T15:27:30.900Z,101588.06
2022-09-23T15:30:15.407Z,101581.78
2022-09-23T15:32:43.624Z,101579.16
2022-09-23T15:35:25.504Z,101576.94
2022-09-23T15:37:56.058Z,101578.94
2022-09-23T15:40:27.575Z,101582.63
2022-09-23T15:42:57.043Z,101583.75
2022-09-23T15:45:40.229Z,101573.72
2022-09-23T15:48:11.670Z,101579.34
2022-09-23T15:50:40.344Z,101571.47
2022-09-23T15:53:07.060Z,101577.81
2022-09-23T15:55:33.756Z,101575.28
2022-09-23T15:58:00.484Z,101574.97
2022-09-23T16:00:27.096Z,101572.78
2022-09-23T16:02:53.993Z,101570.38
2022-09-23T16:05:32.990Z,101569.47
2022-09-23T16:08:02.812Z,101570.16
2022-09-23T16:10:33.947Z,101567.16
2022-09-23T16:13:02.132Z,101569.88
2022-09-23T16:15:31.327Z,101569.34
2022-09-23T16:17:58.862Z,101578.59
2022-09-23T16:20:29.531Z,101575.38
2022-09-23T16:23:03.937Z,101567.81
2022-09-23T16:25:35.825Z,101569.03
2022-09-23T16:28:04.322Z,101576.34
2022-09-23T16:30:33.107Z,101567.88
2022-09-23T16:33:00.851Z,101582.31
2022-09-23T16:35:29.034Z,101576.16
2022-09-23T16:37:55.525Z,101576.06
2022-09-23T16:40:23.469Z,101578.34
2022-09-23T16:42:52.305Z,101577.75
2022-09-23T16:45:22.882Z,101572.31
2022-09-23T16:47:51.296Z,101575.03
2022-09-23T16:50:20.613Z,101583.63
2022-09-23T16:52:46.974Z,101579.50
2022-09-23T16:55:14.337Z,101583.00
2022-09-23T16:57:41.821Z,101573.72
2022-09-23T17:00:32.456Z,101585.50
2022-09-23T17:03:18.035Z,101576.38
2022-09-23T17:05:46.783Z,101581.72
2022-09-23T17:08:14.696Z,101579.13
2022-09-23T17:10:45.624Z,101581.31
2022-09-23T17:13:17.284Z,101588.09
2022-09-23T17:15:44.046Z,101590.84
2022-09-23T17:18:10.453Z,101580.13
2022-09-23T17:20:38.605Z,101581.78
2022-09-23T17:23:05.483Z,101572.31
2022-09-23T17:25:33.912Z,101572.44
2022-09-23T17:28:00.770Z,101574.84
2022-09-23T17:30:27.475Z,101581.63
2022-09-23T17:32:53.784Z,101581.06
2022-09-23T17:35:20.499Z,101575.13
2022-09-23T17:37:47.544Z,101581.88
2022-09-23T17:40:13.983Z,101576.84
2022-09-23T17:42:44.570Z,101573.97
2022-09-23T17:45:12.380Z,101566.94
2022-09-23T17:47:41.705Z,101558.59
2022-09-23T17:50:08.569Z,101556.47
2022-09-23T17:52:34.976Z,101555.66
2022-09-23T17:55:01.318Z,101559.44
2022-09-23T17:57:27.744Z,101548.94
2022-09-23T17:59:54.045Z,101550.03
2022-09-23T18:02:23.291Z,101556.84
2022-09-23T18:04:49.757Z,101559.78
2022-09-23T18:07:16.303Z,101559.00
2022-09-23T18:09:42.660Z,101563.44
2022-09-23T18:12:09.048Z,101562.34
2022-09-23T18:14:35.379Z,101563.09
2022-09-23T18:17:01.755Z,101564.19
2022-09-23T18:19:28.067Z,101558.31
2022-09-23T18:21:57.093Z,101562.59
2022-09-23T18:24:33.180Z,101554.78
2022-09-23T18:27:01.016Z,101564.28
2022-09-23T18:29:27.581Z,101569.72
2022-09-23T18:31:54.099Z,101565.63
2022-09-23T18:34:20.579Z,101562.16
2022-09-23T18:36:47.038Z,101570.56
2022-09-23T18:39:13.434Z,101565.16
2022-09-23T18:41:40.898Z,101563.31
2022-09-23T18:44:07.350Z,101560.09
2022-09-23T18:46:33.809Z,101563.63
2022-09-23T18:49:18.973Z,101567.41
2022-09-23T18:51:54.473Z,101566.03
2022-09-23T18:54:22.340Z,101565.50
2022-09-23T18:56:49.876Z,101569.03
2022-09-23T18:59:19.404Z,101570.34
2022-09-23T19:01:47.267Z,101567.13
2022-09-23T19:04:16.934Z,101571.19
2022-09-23T19:06:43.324Z,101570.44
2022-09-23T19:09:11.884Z,101570.13
2022-09-23T19:11:38.881Z,101569.59
2022-09-23T19:14:09.859Z,101568.25
2022-09-23T19:16:37.697Z,101568.03
2022-09-23T19:19:05.359Z,101560.19
2022-09-23T19:21:32.867Z,101564.84
2022-09-23T19:24:05.180Z,101572.69
2022-09-23T19:26:36.608Z,101564.88
2022-09-23T19:29:04.439Z,101567.06
2022-09-23T19:31:33.908Z,101558.66
2022-09-23T19:34:02.785Z,101563.50
2022-09-23T19:36:34.430Z,101563.28
2022-09-23T19:39:03.124Z,101562.75
2022-09-23T19:41:32.089Z,101563.56
2022-09-23T19:44:02.923Z,101559.22
2022-09-23T19:46:33.900Z,101560.88
2022-09-23T19:49:00.887Z,101559.75
2022-09-23T19:51:28.195Z,101554.88
2022-09-23T19:53:54.513Z,101557.59
2022-09-23T19:56:20.869Z,101549.25
2022-09-23T19:58:51.385Z,101543.59
2022-09-23T20:01:18.708Z,101547.38
2022-09-23T20:03:46.822Z,101553.84
2022-09-23T20:06:14.503Z,101557.09
2022-09-23T20:08:41.298Z,101546.59
2022-09-23T20:11:13.232Z,101552.28
2022-09-23T20:13:41.008Z,101549.03
2022-09-23T20:16:12.107Z,101539.88
2022-09-23T20:18:38.957Z,101539.34
2022-09-23T20:21:06.612Z,101542.81
2022-09-23T20:23:33.081Z,101542.03
2022-09-23T20:26:19.578Z,101541.22
2022-09-23T20:28:46.518Z,101541.25
2022-09-23T20:31:14.163Z,101544.50
2022-09-23T20:33:43.769Z,101538.28
2022-09-23T20:36:13.111Z,101531.56
2022-09-23T20:38:40.355Z,101537.19
2022-09-23T20:41:07.292Z,101537.75
2022-09-23T20:43:34.454Z,101534.50
2022-09-23T20:46:02.847Z,101525.91
2022-09-23T20:48:30.479Z,101528.06
2022-09-23T20:51:04.967Z,101532.94
2022-09-23T20:53:32.252Z,101525.63
2022-09-23T20:55:59.448Z,101521.38
2022-09-23T20:58:27.647Z,101523.78
2022-09-23T21:00:59.116Z,101517.06
2022-09-23T21:03:26.516Z,101519.50
2022-09-23T21:05:52.829Z,101515.47
2022-09-23T21:08:19.507Z,101519.50
2022-09-23T21:10:56.749Z,101511.94
2022-09-23T21:13:23.480Z,101516.00
2022-09-23T21:15:50.143Z,101503.88
2022-09-23T21:18:21.704Z,101503.63
2022-09-23T21:20:55.978Z,101503.34
2022-09-23T21:23:36.265Z,101503.91
2022-09-23T21:26:11.067Z,101502.28
2022-09-23T21:28:45.497Z,101503.34
2022-09-23T21:31:23.903Z,101501.75
2022-09-23T21:34:04.955Z,101507.44
2022-09-23T21:36:34.455Z,101506.63
2022-09-23T21:39:04.328Z,101504.72
2022-09-23T21:41:31.711Z,101504.19
2022-09-23T21:43:59.245Z,101504.47
2022-09-23T21:46:26.692Z,101501.78
2022-09-23T21:48:54.928Z,101507.19
2022-09-23T21:51:24.681Z,101502.34
2022-09-23T21:53:52.784Z,101505.31
2022-09-23T21:56:30.228Z,101503.97
2022-09-23T21:58:58.336Z,101501.53
2022-09-23T22:01:30.202Z,101508.00
2022-09-23T22:03:58.832Z,101509.09
2022-09-23T22:06:27.538Z,101504.25
2022-09-23T22:08:59.714Z,101497.81
2022-09-23T22:12:03.742Z,101502.41
2022-09-23T22:14:30.537Z,101502.94
2022-09-23T22:17:02.627Z,101497.28
2022-09-23T22:19:42.693Z,101496.75
2022-09-23T22:22:14.714Z,101496.47
2022-09-23T22:24:42.280Z,101500.28
2022-09-23T22:27:10.193Z,101499.44
2022-09-23T22:30:05.854Z,101495.13
2022-09-23T22:32:34.797Z,101496.75
2022-09-23T22:35:01.130Z,101492.19
2022-09-23T22:37:30.441Z,101489.22
2022-09-23T22:39:56.942Z,101487.06
2022-09-23T22:42:23.619Z,101491.66
2022-09-23T22:44:50.885Z,101485.72
2022-09-23T22:47:18.331Z,101485.19
2022-09-23T22:49:46.073Z,101490.56
2022-09-23T22:52:12.526Z,101486.50
2022-09-23T22:54:38.952Z,101484.34
2022-09-23T22:57:09.004Z,101482.75
2022-09-23T22:59:37.141Z,101484.91
2022-09-23T23:02:03.749Z,101488.66
2022-09-23T23:04:30.434Z,101477.09
2022-09-23T23:06:58.544Z,101478.19
2022-09-23T23:09:24.922Z,101477.34
2022-09-23T23:11:51.236Z,101473.56
2022-09-23T23:14:19.009Z,101470.63
2022-09-23T23:16:46.295Z,101468.78
2022-09-23T23:19:14.724Z,101467.94
2022-09-23T23:21:44.766Z,101471.47
2022-09-23T23:24:22.482Z,101465.00
2022-09-23T23:26:49.538Z,101471.19
2022-09-23T23:29:17.552Z,101467.69
2022-09-23T23:31:44.461Z,101461.22
2022-09-23T23:34:16.181Z,101468.72
2022-09-23T23:36:43.729Z,101467.94
2022-09-23T23:39:10.935Z,101470.66
2022-09-23T23:41:39.382Z,101459.06
2022-09-23T23:44:06.367Z,101459.06
2022-09-23T23:46:33.774Z,101454.22
2022-09-23T23:49:00.664Z,101456.63
2022-09-23T23:51:27.975Z,101459.06
2022-09-23T23:53:55.298Z,101457.47
2022-09-23T23:56:24.093Z,101455.84
2022-09-23T23:58:55.762Z,101456.63
